NZAA

Auckland International Airport

Auckland, New Zealand
METAR NZAA 210500Z AUTO 27007KT 240V300 9999 -RA FEW012/// BKN029/// OVC055/// 11/09 Q0994 NOSIG
Observed Flight Rules
Aug-21 @ 05:00 UTC (9 hours ago) Marginal Visual Flight Rules
Wind Visibility Clouds Conditions
270° at 7 knots 10,000+ meters
  • Few at 1,200' AGL
  • Broken at 2,900' AGL
  • Overcast at 5,500' AGL
  • Light Rain
Temperatures Readings
Current 11°C / 52°F
Dewpoint 9°C / 48°F
Humidity 88%
Altimeter 29.35" Hg
Pressure 994 hPa
Elevation 6
METAR NZAA 210500Z AUTO 27007KT 240V300 9999 -RA FEW012/// BKN029/// OVC055/// 11/09 Q0994 NOSIG
Observed Flight Rules
Aug-21 @ 05:00 UTC
(9 hours ago)
MVFR
Wind Visibility
270° at 7 knots 10,000+ meters
Clouds
  • Few at 1,200' AGL
  • Broken at 2,900' AGL
  • Overcast at 5,500' AGL
Conditions
  • Light Rain
Temperature Dewpoint
11°C / 52°F 9°C / 48°F
Humidity Altimeter Pressure
88% 29.35" Hg 994 hPa